PEO weather

Penn Yan Airport
Penn Yan, New York, United States

Public forecast

Using degrees Fahrenheit for public forecast. Weather courtesy of forecast.io.

Current aviation weather report (METAR) for Penn Yan Airport

Retrieved 2019/12/10 08:22 UTC (0 seconds ago):

KPEO 100822Z AUTO VRB04KT 10SM BKN028 OVC034 08/07 A2958 RMK AO2 T00830067

Closest aviation forecast (TAF) to Penn Yan Airport

Closest forecast is Ithaca Tompkins Regional Airport, 27.7 nm (51.3 km) ESE. Retrieved 2019/12/10 06:39 UTC (1 hour ago):

TAF KITH 100537Z 1006/1106 19011KT 6SM -RA BR OVC011 WS020/24040KT FM101200 23009KT P6SM SCT022 OVC027 FM101800 29010G15KT P6SM OVC025 FM110200 VRB02KT P6SM OVC035